This is the latest recevied weather packets stored in our database for station/object AG1T-20. If no packets are shown the sender has not sent any weather packets the latest 10 day(s).
| Time | Temp. | Humidity | Pressure | Rain* | Wind** | Luminosity | Snow |
|---|---|---|---|---|---|---|---|
| 1787596204 | 27.78° C | 42% | 1023.5 hPa | 0 mm | - | 861 W/m² | - |
| 1787595604 | 27.22° C | 44% | 1023.5 hPa | 0 mm | - | 862 W/m² | - |
| 1787595004 | 26.67° C | 44% | 1023.5 hPa | 0 mm | - | 860 W/m² | - |
| 1787594405 | 26.11° C | 46% | 1023.5 hPa | 0 mm | - | 848 W/m² | - |
| 1787593804 | 25.56° C | 47% | 1023.9 hPa | 0 mm | - | 860 W/m² | - |
| 1787593205 | 25.56° C | 49% | 1023.9 hPa | 0 mm | - | 859 W/m² | - |
| 1787592604 | 25° C | 47% | 1023.9 hPa | 0 mm | - | 855 W/m² | - |
| 1787592005 | 25° C | 48% | 1023.9 hPa | 0 mm | - | 851 W/m² | - |
| 1787591405 | 24.44° C | 50% | 1023.9 hPa | 0 mm | - | 845 W/m² | - |
| 1787590805 | 23.89° C | 48% | 1023.9 hPa | 0 mm | - | 829 W/m² | - |
| 1787590204 | 23.33° C | 49% | 1023.9 hPa | 0 mm | - | 821 W/m² | - |
| 1787589604 | 23.33° C | 52% | 1023.9 hPa | 0 mm | - | 848 W/m² | - |
| 1787589004 | 22.78° C | 56% | 1023.9 hPa | 0 mm | - | 829 W/m² | - |
| 1787588404 | 22.22° C | 56% | 1023.9 hPa | 0 mm | - | 818 W/m² | - |
| 1787587804 | 21.67° C | 58% | 1023.9 hPa | 0 mm | - | 760 W/m² | - |
| 1787587204 | 21.11° C | 60% | 1023.9 hPa | 0 mm | - | 761 W/m² | - |
| 1787586605 | 21.11° C | 61% | 1023.4 hPa | 0 mm | - | 726 W/m² | - |
| 1787586005 | 21.67° C | 59% | 1023.4 hPa | 0 mm | - | 704 W/m² | - |
| 1787585405 | 21.67° C | 59% | 1023.4 hPa | 0 mm | - | 716 W/m² | - |
| 1787584805 | 20.56° C | 63% | 1023.4 hPa | 0 mm | - | 692 W/m² | - |
| 1787584205 | 20° C | 62% | 1023.4 hPa | 0 mm | - | 175 W/m² | - |
| 1787583604 | 21.11° C | 59% | 1023.4 hPa | 0 mm | - | 671 W/m² | - |
| 1787583004 | 20.56° C | 61% | 1023.5 hPa | 0 mm | - | 575 W/m² | - |
| 1787582405 | 20.56° C | 58% | 1023.5 hPa | 0 mm | - | 540 W/m² | - |
| 1787581805 | 20° C | 63% | 1023.5 hPa | 0 mm | - | 511 W/m² | - |
* Rain latest hour (hover to see other rain measurements)
** Current wind speed in m/s (hover to see current wind gust speed)